createdAt,value
2022-09-15T00:01:40.698Z,2.43
2022-09-15T00:04:07.344Z,2.43
2022-09-15T00:06:34.380Z,3.13
2022-09-15T00:09:00.768Z,3.60
2022-09-15T00:11:28.840Z,3.20
2022-09-15T00:13:56.342Z,3.13
2022-09-15T00:16:23.610Z,4.10
2022-09-15T00:18:50.205Z,3.20
2022-09-15T00:21:18.397Z,3.73
2022-09-15T00:23:45.120Z,3.63
2022-09-15T00:26:12.778Z,3.70
2022-09-15T00:28:39.275Z,3.87
2022-09-15T00:31:07.018Z,3.60
2022-09-15T00:33:33.644Z,3.73
2022-09-15T00:36:02.140Z,4.60
2022-09-15T00:38:28.603Z,4.70
2022-09-15T00:40:55.856Z,4.10
2022-09-15T00:43:40.901Z,4.17
2022-09-15T00:46:07.764Z,4.57
2022-09-15T00:48:34.776Z,4.40
2022-09-15T00:51:01.798Z,4.33
2022-09-15T00:53:28.731Z,4.27
2022-09-15T00:55:56.483Z,3.80
2022-09-15T00:58:25.922Z,3.53
2022-09-15T01:00:56.229Z,3.67
2022-09-15T01:03:23.772Z,4.37
2022-09-15T01:05:54.851Z,4.47
2022-09-15T01:08:24.260Z,3.90
2022-09-15T01:10:52.095Z,4.30
2022-09-15T01:13:18.404Z,3.93
2022-09-15T01:15:52.555Z,3.90
2022-09-15T01:18:24.410Z,4.37
2022-09-15T01:20:56.598Z,3.63
2022-09-15T01:23:32.276Z,4.53
2022-09-15T01:26:17.048Z,3.57
2022-09-15T01:29:01.905Z,3.97
2022-09-15T01:32:22.473Z,3.87
2022-09-15T01:34:54.951Z,4.70
2022-09-15T01:37:23.598Z,5.77
2022-09-15T01:39:51.407Z,5.83
2022-09-15T01:42:18.508Z,5.20
2022-09-15T01:44:45.933Z,5.57
2022-09-15T01:47:13.852Z,6.17
2022-09-15T01:49:46.414Z,5.93
2022-09-15T01:52:15.626Z,6.83
2022-09-15T01:54:48.953Z,6.70
2022-09-15T01:57:17.225Z,6.50
2022-09-15T01:59:44.335Z,7.70
2022-09-15T02:02:22.861Z,6.80
2022-09-15T02:04:54.244Z,6.63
2022-09-15T02:07:27.417Z,6.67
2022-09-15T02:09:58.795Z,6.73
2022-09-15T02:12:33.853Z,7.13
2022-09-15T02:15:07.822Z,7.03
2022-09-15T02:17:36.067Z,6.43
2022-09-15T02:20:15.475Z,6.33
2022-09-15T02:22:44.038Z,6.10
2022-09-15T02:25:18.859Z,6.63
2022-09-15T02:27:47.671Z,5.80
2022-09-15T02:30:15.505Z,6.20
2022-09-15T02:32:46.600Z,6.30
2022-09-15T02:35:13.586Z,6.50
2022-09-15T02:37:39.984Z,6.43
2022-09-15T02:40:06.777Z,6.23
2022-09-15T02:42:33.420Z,6.43
2022-09-15T02:45:00.658Z,6.07
2022-09-15T02:47:28.257Z,6.93
2022-09-15T02:49:55.491Z,6.33
2022-09-15T02:52:21.860Z,5.80
2022-09-15T02:54:48.249Z,6.10
2022-09-15T02:57:14.606Z,6.50
2022-09-15T02:59:59.463Z,6.33
2022-09-15T03:02:26.738Z,6.80
2022-09-15T03:04:53.112Z,6.93
2022-09-15T03:07:19.512Z,6.67
2022-09-15T03:09:46.023Z,7.57
2022-09-15T03:12:12.423Z,6.50
2022-09-15T03:14:38.852Z,7.37
2022-09-15T03:17:05.654Z,6.43
2022-09-15T03:19:31.965Z,6.20
2022-09-15T03:21:58.314Z,6.80
2022-09-15T03:24:24.632Z,6.47
2022-09-15T03:26:51.232Z,6.97
2022-09-15T03:29:17.540Z,6.47
2022-09-15T03:31:44.147Z,6.90
2022-09-15T03:34:10.555Z,6.80
2022-09-15T03:36:36.962Z,7.00
2022-09-15T03:39:03.493Z,6.73
2022-09-15T03:41:29.949Z,6.20
2022-09-15T03:43:56.666Z,7.03
2022-09-15T03:46:23.330Z,6.83
2022-09-15T03:48:49.647Z,7.23
2022-09-15T03:51:15.953Z,7.20
2022-09-15T03:53:42.461Z,7.23
2022-09-15T03:56:23.456Z,7.17
2022-09-15T03:58:50.427Z,7.63
2022-09-15T04:01:18.683Z,7.50
2022-09-15T04:03:50.114Z,7.87
2022-09-15T04:06:17.563Z,7.50
2022-09-15T04:08:43.922Z,7.90
2022-09-15T04:11:11.193Z,7.20
2022-09-15T04:13:38.483Z,7.60
2022-09-15T04:16:06.430Z,7.57
2022-09-15T04:18:33.180Z,7.40
2022-09-15T04:21:00.444Z,8.57
2022-09-15T04:23:27.240Z,8.40
2022-09-15T04:25:57.924Z,8.00
2022-09-15T04:28:28.024Z,8.60
2022-09-15T04:31:02.605Z,5.10
2022-09-15T04:33:28.985Z,2.00
2022-09-15T04:36:06.247Z,1.50
2022-09-15T04:38:32.848Z,0.80
2022-09-15T04:41:00.014Z,0.70
2022-09-15T04:43:27.125Z,0.70
2022-09-15T04:45:53.952Z,0.73
2022-09-15T04:48:20.541Z,0.50
2022-09-15T04:50:46.921Z,0.70
2022-09-15T04:53:13.519Z,0.73
2022-09-15T04:55:40.366Z,0.90
2022-09-15T04:58:07.181Z,1.00
2022-09-15T05:00:37.257Z,0.90
2022-09-15T05:03:03.644Z,1.40
2022-09-15T05:05:29.974Z,1.00
2022-09-15T05:07:56.351Z,1.10
2022-09-15T05:10:22.724Z,1.60
2022-09-15T05:12:49.036Z,2.87
2022-09-15T05:15:15.487Z,4.70
2022-09-15T05:17:41.985Z,6.17
2022-09-15T05:20:08.445Z,7.47
2022-09-15T05:22:37.258Z,8.53
2022-09-15T05:25:07.641Z,9.17
2022-09-15T05:27:34.381Z,9.57
2022-09-15T05:30:31.851Z,9.40
2022-09-15T05:32:47.015Z,9.57
2022-09-15T05:35:14.403Z,10.40
2022-09-15T05:37:40.703Z,11.07
2022-09-15T05:40:08.684Z,11.27
2022-09-15T05:42:35.411Z,10.80
2022-09-15T05:45:01.745Z,11.00
2022-09-15T05:47:28.071Z,10.17
2022-09-15T05:49:54.942Z,11.40
2022-09-15T05:52:21.761Z,10.50
2022-09-15T05:54:48.135Z,10.13
2022-09-15T05:57:14.482Z,10.43
2022-09-15T05:59:42.023Z,10.17
2022-09-15T06:02:09.673Z,9.43
2022-09-15T06:04:36.053Z,7.77
2022-09-15T06:07:02.557Z,8.23
2022-09-15T06:09:28.933Z,8.20
2022-09-15T06:11:55.270Z,8.10
2022-09-15T06:14:21.621Z,9.10
2022-09-15T06:16:47.953Z,8.67
2022-09-15T06:19:14.772Z,8.90
2022-09-15T06:21:41.097Z,8.73
2022-09-15T06:24:07.565Z,8.40
2022-09-15T06:26:34.311Z,8.53
2022-09-15T06:29:01.826Z,9.13
2022-09-15T06:31:29.443Z,8.50
2022-09-15T06:33:57.518Z,8.17
2022-09-15T06:36:26.049Z,9.57
2022-09-15T06:38:52.691Z,9.47
2022-09-15T06:41:19.323Z,9.67
2022-09-15T06:43:46.661Z,9.43
2022-09-15T06:46:14.359Z,9.13
2022-09-15T06:48:41.174Z,9.50
2022-09-15T06:51:08.900Z,9.17
2022-09-15T06:53:36.257Z,7.27
2022-09-15T06:56:03.660Z,9.17
2022-09-15T06:58:30.430Z,9.17
2022-09-15T07:01:00.823Z,10.00
2022-09-15T07:03:27.350Z,9.43
2022-09-15T07:05:53.781Z,9.93
2022-09-15T07:08:20.101Z,9.37
2022-09-15T07:10:46.573Z,10.20
2022-09-15T07:13:12.921Z,9.70
2022-09-15T07:15:39.370Z,10.07
2022-09-15T07:18:05.980Z,9.17
2022-09-15T07:20:33.175Z,10.57
2022-09-15T07:22:59.497Z,9.43
2022-09-15T07:25:25.841Z,9.73
2022-09-15T07:27:52.164Z,10.43
2022-09-15T07:30:18.529Z,10.43
2022-09-15T07:32:44.863Z,11.20
2022-09-15T07:35:11.220Z,10.67
2022-09-15T07:37:37.644Z,10.30
2022-09-15T07:40:04.395Z,10.43
2022-09-15T07:42:35.448Z,11.00
2022-09-15T07:45:02.021Z,10.23
2022-09-15T07:47:28.357Z,10.30
2022-09-15T07:49:55.289Z,10.93
2022-09-15T07:52:21.610Z,9.73
2022-09-15T07:54:48.025Z,10.43
2022-09-15T07:57:14.377Z,11.07
2022-09-15T07:59:41.435Z,10.20
2022-09-15T08:02:09.867Z,10.20
2022-09-15T08:04:36.265Z,10.63
2022-09-15T08:07:02.661Z,9.97
2022-09-15T08:09:28.980Z,11.17
2022-09-15T08:11:55.309Z,10.40
2022-09-15T08:14:21.676Z,10.17
2022-09-15T08:16:48.000Z,9.87
2022-09-15T08:19:14.351Z,9.87
2022-09-15T08:21:40.655Z,9.60
2022-09-15T08:24:07.036Z,9.73
2022-09-15T08:26:33.375Z,9.00
2022-09-15T08:29:00.562Z,9.07
2022-09-15T08:31:26.968Z,9.03
2022-09-15T08:33:54.813Z,8.67
2022-09-15T08:36:21.488Z,8.77
2022-09-15T08:38:48.041Z,8.10
2022-09-15T08:41:23.524Z,8.97
2022-09-15T08:43:58.055Z,7.97
2022-09-15T08:46:27.810Z,8.40
2022-09-15T08:49:02.762Z,8.30
2022-09-15T08:51:32.345Z,8.03
2022-09-15T08:54:05.723Z,7.67
2022-09-15T08:56:32.197Z,7.93
2022-09-15T08:59:00.170Z,7.67
2022-09-15T09:01:38.459Z,7.60
2022-09-15T09:04:23.764Z,7.47
2022-09-15T09:07:04.320Z,7.40
2022-09-15T09:09:40.730Z,6.77
2022-09-15T09:12:19.062Z,7.13
2022-09-15T09:15:08.114Z,7.57
2022-09-15T09:17:54.691Z,6.77
2022-09-15T09:20:29.397Z,6.77
2022-09-15T09:22:57.542Z,6.87
2022-09-15T09:25:28.339Z,7.53
2022-09-15T09:27:56.382Z,7.43
2022-09-15T09:30:23.428Z,9.10
2022-09-15T09:32:52.474Z,11.40
2022-09-15T09:35:32.079Z,12.20
2022-09-15T09:37:59.976Z,11.30
2022-09-15T09:40:26.445Z,12.23
2022-09-15T09:42:52.821Z,11.53
2022-09-15T09:45:19.627Z,11.07
2022-09-15T09:47:46.444Z,11.33
2022-09-15T09:50:32.493Z,11.10
2022-09-15T09:52:59.445Z,12.93
2022-09-15T09:55:27.179Z,11.10
2022-09-15T09:57:54.333Z,11.37
2022-09-15T10:00:23.684Z,10.63
2022-09-15T10:02:50.314Z,10.70
2022-09-15T10:05:18.227Z,10.27
2022-09-15T10:07:44.645Z,10.97
2022-09-15T10:10:25.790Z,10.03
2022-09-15T10:12:55.648Z,10.07
2022-09-15T10:15:27.100Z,9.47
2022-09-15T10:17:55.135Z,8.83
2022-09-15T10:20:24.588Z,8.57
2022-09-15T10:22:51.296Z,7.73
2022-09-15T10:25:20.831Z,8.90
2022-09-15T10:28:06.280Z,8.60
2022-09-15T10:30:32.608Z,8.67
2022-09-15T10:33:17.673Z,9.60
2022-09-15T10:35:44.429Z,8.43
2022-09-15T10:38:15.864Z,8.23
2022-09-15T10:40:54.581Z,9.00
2022-09-15T10:43:26.668Z,8.80
2022-09-15T10:46:01.163Z,8.03
2022-09-15T10:48:40.629Z,7.33
2022-09-15T10:51:15.939Z,7.30
2022-09-15T10:53:42.298Z,6.90
2022-09-15T10:56:18.274Z,7.03
2022-09-15T10:58:45.877Z,7.90
2022-09-15T11:01:12.502Z,7.10
2022-09-15T11:03:57.641Z,7.43
2022-09-15T11:06:28.615Z,7.80
2022-09-15T11:09:10.313Z,7.20
2022-09-15T11:11:44.391Z,7.10
2022-09-15T11:14:23.002Z,7.33
2022-09-15T11:16:49.395Z,7.47
2022-09-15T11:19:15.797Z,7.07
2022-09-15T11:21:44.983Z,8.23
2022-09-15T11:24:14.376Z,6.87
2022-09-15T11:26:44.093Z,7.63
2022-09-15T11:29:16.733Z,5.73
2022-09-15T11:31:44.756Z,5.67
2022-09-15T11:34:23.365Z,6.40
2022-09-15T11:37:02.957Z,6.37
2022-09-15T11:39:46.151Z,5.73
2022-09-15T11:42:34.325Z,9.57
2022-09-15T11:45:01.447Z,10.47
2022-09-15T11:47:27.793Z,8.27
2022-09-15T11:50:00.264Z,7.13
2022-09-15T11:52:33.972Z,8.37
2022-09-15T11:55:09.023Z,8.00
2022-09-15T11:57:38.684Z,7.00
2022-09-15T12:00:13.750Z,7.20
2022-09-15T12:02:40.181Z,7.43
2022-09-15T12:05:06.704Z,6.03
2022-09-15T12:07:37.397Z,5.90
2022-09-15T12:10:13.743Z,3.97
2022-09-15T12:12:41.225Z,5.23
2022-09-15T12:15:13.378Z,4.83
2022-09-15T12:17:56.274Z,5.20
2022-09-15T12:20:29.255Z,4.37
2022-09-15T12:22:58.712Z,3.50
2022-09-15T12:25:29.297Z,5.17
2022-09-15T12:28:14.314Z,5.60
2022-09-15T12:30:41.435Z,4.07
2022-09-15T12:33:28.188Z,4.47
2022-09-15T12:35:54.526Z,4.00
2022-09-15T12:38:22.979Z,4.17
2022-09-15T12:40:57.461Z,3.87
2022-09-15T12:43:25.013Z,3.17
2022-09-15T12:45:59.053Z,4.20
2022-09-15T12:48:27.557Z,4.00
2022-09-15T12:50:55.720Z,3.70
2022-09-15T12:53:24.723Z,3.60
2022-09-15T12:55:56.140Z,4.90
2022-09-15T12:58:39.250Z,4.40
2022-09-15T13:01:18.697Z,4.90
2022-09-15T13:03:45.401Z,3.23
2022-09-15T13:06:11.814Z,2.63
2022-09-15T13:08:38.145Z,2.40
2022-09-15T13:11:08.050Z,2.40
2022-09-15T13:13:53.191Z,2.37
2022-09-15T13:16:34.812Z,2.80
2022-09-15T13:19:07.131Z,2.60
2022-09-15T13:21:34.867Z,2.63
2022-09-15T13:24:02.857Z,2.80
2022-09-15T13:26:30.412Z,2.83
2022-09-15T13:28:57.527Z,2.37
2022-09-15T13:39:58.590Z,2.83
2022-09-15T13:42:39.881Z,3.47
2022-09-15T13:45:15.594Z,3.90
2022-09-15T13:47:48.535Z,3.90
2022-09-15T13:50:19.527Z,3.23
2022-09-15T13:53:01.233Z,2.90
2022-09-15T13:55:28.798Z,3.10
2022-09-15T14:00:46.544Z,2.80
2022-09-15T14:03:16.222Z,2.50
2022-09-15T14:05:46.041Z,3.37
2022-09-15T14:08:15.217Z,2.80
2022-09-15T14:10:48.421Z,2.73
2022-09-15T14:13:16.389Z,2.93
2022-09-15T14:15:55.537Z,2.73
2022-09-15T14:18:21.924Z,2.50
2022-09-15T14:21:02.077Z,2.70
2022-09-15T14:23:28.698Z,2.77
2022-09-15T14:25:55.291Z,2.50
2022-09-15T14:28:27.287Z,2.93
2022-09-15T14:30:57.482Z,2.77
2022-09-15T14:33:24.103Z,2.37
2022-09-15T14:35:50.502Z,2.27
2022-09-15T14:38:24.228Z,2.83
2022-09-15T14:40:56.722Z,7.27
2022-09-15T14:43:23.991Z,8.70
2022-09-15T14:45:54.689Z,9.97
2022-09-15T14:48:27.878Z,7.20
2022-09-15T14:51:01.297Z,11.93
2022-09-15T14:53:29.093Z,9.33
2022-09-15T14:55:59.076Z,8.07
2022-09-15T14:58:36.690Z,4.07
2022-09-15T15:01:13.879Z,5.83
2022-09-15T15:03:40.300Z,4.30
2022-09-15T15:06:29.826Z,4.53
2022-09-15T15:09:03.217Z,3.90
2022-09-15T15:11:31.180Z,4.40
2022-09-15T15:13:57.676Z,4.40
2022-09-15T15:16:26.135Z,3.27
2022-09-15T15:18:53.375Z,2.40
2022-09-15T15:21:33.974Z,2.97
2022-09-15T15:24:00.372Z,2.70
2022-09-15T15:26:29.727Z,3.10
2022-09-15T15:28:56.185Z,2.40
2022-09-15T15:31:23.617Z,2.80
2022-09-15T15:33:50.182Z,3.17
2022-09-15T15:36:20.428Z,2.57
2022-09-15T15:38:50.942Z,2.67
2022-09-15T15:41:19.878Z,3.30
2022-09-15T15:43:55.440Z,2.63
2022-09-15T15:46:40.709Z,2.90
2022-09-15T15:49:10.709Z,2.80
2022-09-15T15:51:37.045Z,2.33
2022-09-15T15:54:03.401Z,1.97
2022-09-15T15:56:29.729Z,2.90
2022-09-15T15:58:56.101Z,2.97
2022-09-15T16:01:22.491Z,2.50
2022-09-15T16:03:48.895Z,2.07
2022-09-15T16:06:15.853Z,2.77
2022-09-15T16:08:43.155Z,2.63
2022-09-15T16:11:10.783Z,2.80
2022-09-15T16:13:37.351Z,2.80
2022-09-15T16:16:11.122Z,2.90
2022-09-15T16:18:37.837Z,2.50
2022-09-15T16:21:04.253Z,2.40
2022-09-15T16:23:31.585Z,2.37
2022-09-15T16:25:59.680Z,2.73
2022-09-15T16:28:26.147Z,2.63
2022-09-15T16:30:52.477Z,2.53
2022-09-15T16:33:19.139Z,2.87
2022-09-15T16:35:45.944Z,2.53
2022-09-15T16:38:12.371Z,2.67
2022-09-15T16:40:38.703Z,2.70
2022-09-15T16:43:09.101Z,2.70
2022-09-15T16:45:40.817Z,3.23
2022-09-15T16:48:11.807Z,2.50
2022-09-15T16:50:40.203Z,3.23
2022-09-15T16:53:20.759Z,3.10
2022-09-15T16:55:48.194Z,2.77
2022-09-15T16:58:17.543Z,2.83
2022-09-15T17:00:44.674Z,2.87
2022-09-15T17:03:14.629Z,3.07
2022-09-15T17:08:53.112Z,3.03
2022-09-15T17:14:21.636Z,3.10
2022-09-15T17:16:54.423Z,3.37
2022-09-15T17:19:24.256Z,3.57
2022-09-15T17:21:52.595Z,3.37
2022-09-15T17:24:22.197Z,3.77
2022-09-15T17:26:48.530Z,3.33
2022-09-15T17:29:14.964Z,3.70
2022-09-15T17:31:41.351Z,3.80
2022-09-15T17:34:12.635Z,4.07
2022-09-15T17:36:39.083Z,4.20
2022-09-15T17:39:05.443Z,4.30
2022-09-15T17:41:32.187Z,4.50
2022-09-15T17:43:58.493Z,4.90
2022-09-15T17:46:24.881Z,4.63
2022-09-15T17:48:51.210Z,4.93
2022-09-15T17:51:17.649Z,4.53
2022-09-15T17:53:45.809Z,4.73
2022-09-15T17:56:12.269Z,4.57
2022-09-15T17:58:38.641Z,4.93
2022-09-15T18:01:05.072Z,5.10
2022-09-15T18:03:35.394Z,4.43
2022-09-15T18:06:05.038Z,4.50
2022-09-15T18:08:32.870Z,4.20
2022-09-15T18:10:59.754Z,4.67
2022-09-15T18:13:27.285Z,4.17
2022-09-15T18:15:54.076Z,4.30
2022-09-15T18:18:21.711Z,4.27
2022-09-15T18:20:49.712Z,4.17
2022-09-15T18:23:23.129Z,4.10
2022-09-15T18:25:49.836Z,5.17
2022-09-15T18:28:16.609Z,4.73
2022-09-15T18:30:44.243Z,4.20
2022-09-15T18:33:18.524Z,4.87
2022-09-15T18:35:45.284Z,4.37
2022-09-15T18:38:11.910Z,5.10
2022-09-15T18:40:38.257Z,5.13
2022-09-15T18:43:05.522Z,4.57
2022-09-15T18:45:31.889Z,4.67
2022-09-15T18:47:58.216Z,5.10
2022-09-15T18:50:25.509Z,4.70
2022-09-15T18:52:52.250Z,4.97
2022-09-15T18:55:20.212Z,4.37
2022-09-15T18:57:47.202Z,4.87
2022-09-15T19:00:15.108Z,5.07
2022-09-15T19:02:41.525Z,4.63
2022-09-15T19:05:11.046Z,4.60
2022-09-15T19:07:38.374Z,4.77
2022-09-15T19:10:05.764Z,5.10
2022-09-15T19:12:32.089Z,4.90
2022-09-15T19:14:58.421Z,5.90
2022-09-15T19:17:24.741Z,4.90
2022-09-15T19:19:51.362Z,5.40
2022-09-15T19:22:17.699Z,5.23
2022-09-15T19:24:44.044Z,5.40
2022-09-15T19:27:10.435Z,5.07
2022-09-15T19:29:37.202Z,4.70
2022-09-15T19:32:04.553Z,5.23
2022-09-15T19:34:31.004Z,5.40
2022-09-15T19:36:57.777Z,5.20
2022-09-15T19:39:24.332Z,4.80
2022-09-15T19:41:51.249Z,5.00
2022-09-15T19:44:17.878Z,4.90
2022-09-15T19:46:44.320Z,4.67
2022-09-15T19:49:11.380Z,4.57
2022-09-15T19:51:37.918Z,4.80
2022-09-15T19:54:04.563Z,5.20
2022-09-15T19:56:31.048Z,5.03
2022-09-15T19:58:58.086Z,4.97
2022-09-15T20:01:25.333Z,5.13
2022-09-15T20:03:55.972Z,4.40
2022-09-15T20:06:22.875Z,5.27
2022-09-15T20:08:58.043Z,4.33
2022-09-15T20:11:25.996Z,4.30
2022-09-15T20:13:52.956Z,4.23
2022-09-15T20:16:20.101Z,4.00
2022-09-15T20:18:47.743Z,4.00
2022-09-15T20:21:26.891Z,4.03
2022-09-15T20:23:59.635Z,4.10
2022-09-15T20:26:26.583Z,4.63
2022-09-15T20:28:53.775Z,4.13
2022-09-15T20:31:24.926Z,4.20
2022-09-15T20:33:51.784Z,4.20
2022-09-15T20:36:19.383Z,3.40
2022-09-15T20:38:46.535Z,3.53
2022-09-15T20:41:13.657Z,3.47
2022-09-15T20:43:40.915Z,2.97
2022-09-15T20:46:08.610Z,3.07
2022-09-15T20:48:36.568Z,3.03
2022-09-15T20:51:04.422Z,3.37
2022-09-15T20:53:30.916Z,2.97
2022-09-15T20:55:57.712Z,2.63
2022-09-15T20:58:24.487Z,3.37
2022-09-15T21:00:51.883Z,3.13
2022-09-15T21:03:19.178Z,3.53
2022-09-15T21:05:46.016Z,3.70
2022-09-15T21:08:12.979Z,4.00
2022-09-15T21:10:43.505Z,4.17
2022-09-15T21:13:09.856Z,4.60
2022-09-15T21:15:36.194Z,4.60
2022-09-15T21:18:02.580Z,4.40
2022-09-15T21:20:29.041Z,4.80
2022-09-15T21:22:56.086Z,4.63
2022-09-15T21:25:22.700Z,4.97
2022-09-15T21:27:50.296Z,4.40
2022-09-15T21:30:17.031Z,4.57
2022-09-15T21:32:43.439Z,4.53
2022-09-15T21:35:09.903Z,5.10
2022-09-15T21:37:36.327Z,4.60
2022-09-15T21:40:03.397Z,4.23
2022-09-15T21:42:29.810Z,4.70
2022-09-15T21:44:56.220Z,4.10
2022-09-15T21:47:22.609Z,3.70
2022-09-15T21:49:48.979Z,3.37
2022-09-15T21:52:15.347Z,2.80
2022-09-15T21:54:41.901Z,3.17
2022-09-15T21:57:08.283Z,2.90
2022-09-15T21:59:34.652Z,2.90
2022-09-15T22:02:01.114Z,2.63
2022-09-15T22:04:27.514Z,2.67
2022-09-15T22:06:53.976Z,2.67
2022-09-15T22:09:23.297Z,3.67
2022-09-15T22:11:49.695Z,3.53
2022-09-15T22:14:16.041Z,3.47
2022-09-15T22:16:42.938Z,3.57
2022-09-15T22:19:10.771Z,3.90
2022-09-15T22:21:41.433Z,3.50
2022-09-15T22:24:08.167Z,3.07
2022-09-15T22:26:36.103Z,3.30
2022-09-15T22:29:02.557Z,3.20
2022-09-15T22:31:29.546Z,3.20
2022-09-15T22:33:56.544Z,3.50
2022-09-15T22:36:28.643Z,3.33
2022-09-15T22:38:55.805Z,4.03
2022-09-15T22:41:25.116Z,4.00
2022-09-15T22:43:51.596Z,4.30
2022-09-15T22:46:18.720Z,4.30
2022-09-15T22:48:45.208Z,4.50
2022-09-15T22:51:11.750Z,4.10
2022-09-15T22:53:38.532Z,4.33
2022-09-15T22:56:09.852Z,4.50
2022-09-15T22:58:36.626Z,4.43
2022-09-15T23:01:07.365Z,4.33
2022-09-15T23:03:33.929Z,3.90
2022-09-15T23:06:00.561Z,4.57
2022-09-15T23:08:27.040Z,4.20
2022-09-15T23:10:53.482Z,4.40
2022-09-15T23:13:19.836Z,4.47
2022-09-15T23:15:46.177Z,4.47
2022-09-15T23:18:12.526Z,3.93
2022-09-15T23:20:39.723Z,3.93
2022-09-15T23:23:06.307Z,3.60
2022-09-15T23:25:32.655Z,3.50
2022-09-15T23:27:58.994Z,3.20
2022-09-15T23:30:25.347Z,3.50
2022-09-15T23:32:51.711Z,3.30
2022-09-15T23:35:18.040Z,3.17
2022-09-15T23:37:44.348Z,3.23
2022-09-15T23:40:10.766Z,3.63
2022-09-15T23:42:37.220Z,3.60
2022-09-15T23:45:03.823Z,3.47
2022-09-15T23:47:30.150Z,3.70
2022-09-15T23:49:56.556Z,3.67
2022-09-15T23:52:22.871Z,3.50
2022-09-15T23:54:49.238Z,3.10
2022-09-15T23:57:15.603Z,3.30
2022-09-15T23:59:41.952Z,3.10
